Vremea acum in Iasi - Romania

Vrei sa afli care e starea vremii acum in Iasi - Romania? Dorim sa iti furnizam starea vremii pentru Iasi - Romania. Starea vremii Iasi - Romania pentru astazi.

Vremea acum in Iasi

Temperatura: 32 °C

Se simte ca: 33.1 °C
Innorat: 0 %
Precipitatii: 0 %
Presiune atmosferica: 1011 hPa
Umiditate: 41%
Vizibilitate: 10 km
Vantul bate din W cu 11.2 km/h

Evolutia vremii in Iasi pe ore

Ora: 14:00
Parțial noros
Temperatura: 31.9°C
Sansa de precipitatii: 0%
Ora Descriere Temp Se simte Precipitatii Umiditate Vant
00:00Senin22.4°25°0%69%SSW 3.6 KM/H
01:00Senin21.4°21.4°0%70%SSW 4.3 KM/H
02:00Senin20.5°20.5°0%70%S 4.7 KM/H
03:00Parțial noros19.7°19.7°0%72%S 4.7 KM/H
04:00Senin18.8°18.8°0%74%S 4.7 KM/H
05:00Parțial noros18°18°0%75%S 4.7 KM/H
06:00Parțial noros20°20°0%71%S 6.5 KM/H
07:00Parțial noros21.9°21.9°0%67%S 7.9 KM/H
08:00Parțial noros23.9°25.5°0%63%SSW 9.7 KM/H
09:00Parțial noros25.6°27.1°0%60%SSW 10.4 KM/H
10:00Parțial noros27.2°28.6°0%56%SW 10.8 KM/H
11:00Parțial noros28.9°30.2°0%53%SW 11.5 KM/H
12:00Parțial noros29.9°31.2°0%49%WSW 11.5 KM/H
13:00Parțial noros30.9°32.3°0%46%WSW 11.9 KM/H
14:00Parțial noros31.9°33.3°0%43%WSW 11.9 KM/H
15:00Ploi uşoare şi de scurtă durată30°31.5°23%52%WNW 16.2 KM/H
16:00Parțial noros28.1°29.8°46%61%NW 20.9 KM/H
17:00Ploi uşoare şi de scurtă durată26.2°28°69%70%N 25.2 KM/H
18:00Parțial noros24.6°26.8°46%77%NW 17.6 KM/H
19:00Ploi uşoare şi de scurtă durată23.1°25.5°23%84%WNW 10.4 KM/H
20:00Parțial noros21.5°21.5°0%92%W 2.9 KM/H
21:00Ploi uşoare şi de scurtă durată21°21°23%90%WNW 6.1 KM/H
22:00Parțial noros20.5°20.5°45%88%NW 9.4 KM/H
23:00Ploi uşoare şi de scurtă durată20°20°68%87%NNW 12.6 KM/H